Wetterdaten: Woche 27.07.15 - 02.08.15 (KW31)
Datum Zeit Temp. A. Feuchte A. Luftdruck Regen Wind Richtung Sonnenschein ET UV Solar Taupunkt Windchill Windben
27.07.2015 00:00 14,8 C 67 % 1007,3 hPa 0,2 l/m 0,7 km/h (0 Bft) N 0,00 h 0,025 mm 0,0 UV-I 0 W/m 8,8 C 14,8 C 1,9 km/h (1 Bft)
27.07.2015 01:00 14,1 C 75 % 1006,5 hPa 0,0 l/m 0,3 km/h (0 Bft) N 0,00 h 0,025 mm 0,0 UV-I 0 W/m 9,8 C 14,1 C 1,5 km/h (1 Bft)
27.07.2015 02:00 13,4 C 80 % 1006,2 hPa 0,0 l/m 2,5 km/h (1 Bft) S 0,00 h 0,025 mm 0,0 UV-I 0 W/m 10,1 C 13,3 C 5,5 km/h (2 Bft)
27.07.2015 03:00 13,1 C 83 % 1005,9 hPa 0,0 l/m 0,6 km/h (0 Bft) N 0,00 h 0,025 mm 0,0 UV-I 0 W/m 10,3 C 13,1 C 1,9 km/h (1 Bft)
27.07.2015 04:00 12,9 C 85 % 1005,4 hPa 0,0 l/m 0,1 km/h (0 Bft) N 0,00 h 0,000 mm 0,0 UV-I 0 W/m 10,5 C 12,9 C 0,6 km/h (0 Bft)
27.07.2015 05:00 12,6 C 87 % 1005,1 hPa 0,0 l/m 0,4 km/h (0 Bft) N 0,00 h 0,000 mm 0,0 UV-I 8 W/m 10,5 C 12,6 C 1,5 km/h (1 Bft)
27.07.2015 06:00 12,9 C 87 % 1004,9 hPa 0,0 l/m 1,0 km/h (0 Bft) N 0,02 h 0,000 mm 0,0 UV-I 26 W/m 10,8 C 12,9 C 2,2 km/h (1 Bft)
27.07.2015 07:00 13,8 C 86 % 1004,6 hPa 0,0 l/m 5,1 km/h (1 Bft) S 0,90 h 0,025 mm 0,5 UV-I 83 W/m 11,6 C 13,4 C 10,8 km/h (2 Bft)
27.07.2015 08:00 13,9 C 87 % 1004,6 hPa 0,0 l/m 5,3 km/h (1 Bft) S 0,68 h 0,051 mm 0,7 UV-I 84 W/m 11,9 C 13,5 C 11,8 km/h (2 Bft)
27.07.2015 09:00 14,7 C 87 % 1004,5 hPa 0,0 l/m 3,1 km/h (1 Bft) S 1,00 h 0,051 mm 1,0 UV-I 148 W/m 12,6 C 14,7 C 7,8 km/h (2 Bft)
27.07.2015 10:00 14,8 C 91 % 1004,6 hPa 1,8 l/m 1,4 km/h (1 Bft) W-SW 0,97 h 0,076 mm 1,0 UV-I 132 W/m 13,3 C 14,8 C 5,0 km/h (1 Bft)
27.07.2015 11:00 16,0 C 89 % 1004,4 hPa 0,2 l/m 5,4 km/h (1 Bft) W-SW 1,00 h 0,076 mm 3,1 UV-I 463 W/m 14,3 C 15,5 C 11,7 km/h (2 Bft)
27.07.2015 12:00 16,9 C 84 % 1004,3 hPa 0,0 l/m 11,8 km/h (2 Bft) W 1,00 h 0,229 mm 2,7 UV-I 330 W/m 14,1 C 14,6 C 20,8 km/h (4 Bft)
27.07.2015 13:00 18,0 C 77 % 1004,0 hPa 0,0 l/m 11,5 km/h (2 Bft) W-SW 1,00 h 0,229 mm 3,3 UV-I 402 W/m 14,0 C 16,0 C 19,8 km/h (3 Bft)
27.07.2015 14:00 19,0 C 75 % 1003,7 hPa 1,2 l/m 9,1 km/h (2 Bft) W-SW 0,82 h 0,254 mm 3,3 UV-I 288 W/m 14,3 C 17,6 C 17,5 km/h (3 Bft)
27.07.2015 15:00 16,9 C 86 % 1004,6 hPa 0,2 l/m 11,0 km/h (2 Bft) W 1,00 h 0,254 mm 3,2 UV-I 523 W/m 14,4 C 14,8 C 18,6 km/h (3 Bft)
27.07.2015 16:00 18,5 C 71 % 1004,8 hPa 0,0 l/m 12,7 km/h (3 Bft) W 1,00 h 0,305 mm 2,2 UV-I 341 W/m 13,2 C 16,2 C 20,6 km/h (4 Bft)
27.07.2015 17:00 18,8 C 64 % 1004,8 hPa 0,0 l/m 12,8 km/h (3 Bft) W 1,00 h 0,254 mm 1,5 UV-I 269 W/m 11,9 C 16,5 C 21,4 km/h (4 Bft)
27.07.2015 18:00 18,7 C 61 % 1004,9 hPa 0,0 l/m 12,4 km/h (2 Bft) W 0,82 h 0,203 mm 0,9 UV-I 67 W/m 11,1 C 16,5 C 20,4 km/h (4 Bft)
27.07.2015 19:00 15,5 C 78 % 1006,0 hPa 0,4 l/m 5,8 km/h (2 Bft) W 0,33 h 0,102 mm 0,0 UV-I 37 W/m 11,5 C 14,6 C 11,7 km/h (2 Bft)
27.07.2015 20:00 14,0 C 86 % 1006,3 hPa 0,0 l/m 0,0 km/h (0 Bft) N 0,00 h 0,051 mm 0,0 UV-I 12 W/m 11,7 C 14,0 C 0,0 km/h (0 Bft)
27.07.2015 21:00 13,1 C 91 % 1006,9 hPa 0,0 l/m 0,0 km/h (0 Bft) N 0,00 h 0,000 mm 0,0 UV-I 0 W/m 11,7 C 13,1 C 0,0 km/h (0 Bft)
27.07.2015 22:00 13,0 C 93 % 1007,4 hPa 0,2 l/m 0,0 km/h (0 Bft) N 0,00 h 0,000 mm 0,0 UV-I 0 W/m 11,9 C 13,0 C 0,1 km/h (0 Bft)
27.07.2015 23:00 13,3 C 93 % 1007,6 hPa 0,2 l/m 0,0 km/h (0 Bft) N 0,00 h 0,000 mm 0,0 UV-I 0 W/m 12,2 C 13,3 C 0,0 km/h (0 Bft)
28.07.2015 00:00 13,2 C 91 % 1007,3 hPa 0,0 l/m 0,0 km/h (0 Bft) N 0,00 h 0,000 mm 0,0 UV-I 0 W/m 11,7 C 13,2 C 0,1 km/h (0 Bft)
28.07.2015 01:00 13,1 C 90 % 1007,1 hPa 0,0 l/m 0,0 km/h (0 Bft) N 0,00 h 0,000 mm 0,0 UV-I 0 W/m 11,5 C 13,1 C 0,3 km/h (0 Bft)
28.07.2015 02:00 13,6 C 84 % 1006,9 hPa 0,0 l/m 2,4 km/h (1 Bft) S 0,00 h 0,000 mm 0,0 UV-I 0 W/m 10,9 C 13,6 C 7,0 km/h (2 Bft)
28.07.2015 03:00 13,7 C 80 % 1006,7 hPa 0,0 l/m 2,1 km/h (1 Bft) S-SW 0,00 h 0,025 mm 0,0 UV-I 0 W/m 10,3 C 13,7 C 6,5 km/h (2 Bft)
28.07.2015 04:00 14,4 C 76 % 1006,4 hPa 0,0 l/m 2,4 km/h (1 Bft) SW 0,00 h 0,000 mm 0,0 UV-I 0 W/m 10,1 C 14,4 C 6,6 km/h (2 Bft)
28.07.2015 05:00 14,5 C 75 % 1006,3 hPa 0,0 l/m 2,3 km/h (1 Bft) SW 0,00 h 0,025 mm 0,0 UV-I 8 W/m 10,1 C 14,4 C 6,2 km/h (2 Bft)
28.07.2015 06:00 14,7 C 75 % 1006,4 hPa 0,0 l/m 5,0 km/h (1 Bft) S 0,35 h 0,025 mm 0,0 UV-I 45 W/m 10,4 C 14,4 C 10,9 km/h (2 Bft)
28.07.2015 07:00 15,8 C 74 % 1006,5 hPa 0,0 l/m 7,5 km/h (2 Bft) SW 1,00 h 0,051 mm 0,7 UV-I 182 W/m 11,2 C 14,9 C 15,1 km/h (3 Bft)
28.07.2015 08:00 16,9 C 71 % 1006,6 hPa 0,0 l/m 7,3 km/h (2 Bft) S 1,00 h 0,127 mm 1,3 UV-I 341 W/m 11,6 C 16,0 C 16,1 km/h (3 Bft)
28.07.2015 09:00 17,1 C 71 % 1006,9 hPa 0,0 l/m 10,8 km/h (2 Bft) W-SW 1,00 h 0,203 mm 1,6 UV-I 279 W/m 11,7 C 15,1 C 20,5 km/h (4 Bft)
28.07.2015 10:00 16,7 C 73 % 1007,5 hPa 0,0 l/m 15,4 km/h (3 Bft) W 1,00 h 0,203 mm 3,0 UV-I 511 W/m 11,8 C 13,2 C 24,8 km/h (4 Bft)
28.07.2015 11:00 17,8 C 65 % 1007,7 hPa 0,0 l/m 16,6 km/h (3 Bft) W 1,00 h 0,330 mm 4,6 UV-I 566 W/m 11,1 C 14,3 C 27,0 km/h (5 Bft)
28.07.2015 12:00 18,1 C 63 % 1007,7 hPa 0,0 l/m 13,1 km/h (3 Bft) W-SW 1,00 h 0,432 mm 4,2 UV-I 505 W/m 10,8 C 15,5 C 21,3 km/h (4 Bft)
28.07.2015 13:00 18,4 C 61 % 1007,4 hPa 0,0 l/m 10,9 km/h (2 Bft) W-SW 1,00 h 0,356 mm 3,7 UV-I 413 W/m 10,8 C 16,6 C 19,7 km/h (3 Bft)
28.07.2015 14:00 19,0 C 56 % 1007,3 hPa 0,0 l/m 16,1 km/h (3 Bft) W-SW 1,00 h 0,279 mm 4,4 UV-I 467 W/m 10,1 C 16,0 C 26,2 km/h (4 Bft)
28.07.2015 15:00 19,5 C 50 % 1007,2 hPa 0,0 l/m 15,4 km/h (3 Bft) W 1,00 h 0,381 mm 3,4 UV-I 417 W/m 8,7 C 16,7 C 25,4 km/h (4 Bft)
28.07.2015 16:00 20,0 C 46 % 1007,0 hPa 0,0 l/m 14,0 km/h (3 Bft) W-SW 1,00 h 0,356 mm 2,9 UV-I 428 W/m 8,1 C 17,6 C 23,1 km/h (4 Bft)
28.07.2015 17:00 19,3 C 47 % 1007,1 hPa 0,0 l/m 14,4 km/h (3 Bft) W 1,00 h 0,356 mm 1,4 UV-I 200 W/m 7,9 C 16,7 C 23,5 km/h (4 Bft)
28.07.2015 18:00 18,4 C 51 % 1007,4 hPa 0,0 l/m 9,7 km/h (2 Bft) W 1,00 h 0,229 mm 0,6 UV-I 94 W/m 7,9 C 16,9 C 17,3 km/h (3 Bft)
28.07.2015 19:00 17,6 C 51 % 1007,9 hPa 0,0 l/m 8,5 km/h (2 Bft) W 0,62 h 0,127 mm 0,0 UV-I 50 W/m 7,2 C 16,3 C 14,8 km/h (3 Bft)
28.07.2015 20:00 17,0 C 53 % 1008,0 hPa 0,0 l/m 2,8 km/h (1 Bft) W 0,00 h 0,076 mm 0,0 UV-I 14 W/m 7,3 C 16,9 C 7,6 km/h (2 Bft)
28.07.2015 21:00 16,2 C 55 % 1008,7 hPa 0,0 l/m 1,2 km/h (1 Bft) W-SW 0,00 h 0,026 mm 0,0 UV-I 0 W/m 7,2 C 16,2 C 4,4 km/h (1 Bft)
28.07.2015 22:00 15,6 C 56 % 1009,0 hPa 0,0 l/m 1,4 km/h (1 Bft) W-SW 0,00 h 0,051 mm 0,0 UV-I 0 W/m 6,9 C 15,6 C 4,5 km/h (1 Bft)
28.07.2015 23:00 15,3 C 56 % 1009,3 hPa 0,0 l/m 1,4 km/h (1 Bft) W-SW 0,00 h 0,051 mm 0,0 UV-I 0 W/m 6,7 C 15,3 C 4,6 km/h (1 Bft)
29.07.2015 00:00 15,0 C 58 % 1009,6 hPa 0,0 l/m 1,2 km/h (1 Bft) W-SW 0,00 h 0,051 mm 0,0 UV-I 0 W/m 6,9 C 15,0 C 4,7 km/h (1 Bft)
29.07.2015 01:00 14,5 C 63 % 1009,8 hPa 0,0 l/m 2,1 km/h (1 Bft) SW 0,00 h 0,051 mm 0,0 UV-I 0 W/m 7,6 C 14,5 C 6,2 km/h (2 Bft)
29.07.2015 02:00 12,8 C 77 % 1010,0 hPa 0,2 l/m 2,5 km/h (1 Bft) SW 0,00 h 0,025 mm 0,0 UV-I 0 W/m 8,9 C 12,8 C 7,6 km/h (2 Bft)
29.07.2015 03:00 12,2 C 82 % 1010,0 hPa 0,0 l/m 2,7 km/h (1 Bft) SW 0,00 h 0,025 mm 0,0 UV-I 0 W/m 9,2 C 12,1 C 8,0 km/h (2 Bft)
29.07.2015 04:00 12,0 C 83 % 1010,0 hPa 0,0 l/m 0,5 km/h (0 Bft) N 0,00 h 0,000 mm 0,0 UV-I 0 W/m 9,1 C 12,0 C 2,3 km/h (1 Bft)
29.07.2015 05:00 11,4 C 86 % 1010,0 hPa 0,0 l/m 1,4 km/h (1 Bft) N 0,00 h 0,025 mm 0,0 UV-I 8 W/m 9,1 C 11,3 C 4,5 km/h (1 Bft)
29.07.2015 06:00 11,7 C 85 % 1010,0 hPa 0,0 l/m 4,1 km/h (1 Bft) SW 0,25 h 0,000 mm 0,0 UV-I 36 W/m 9,2 C 11,4 C 10,5 km/h (2 Bft)
29.07.2015 07:00 12,1 C 84 % 1010,0 hPa 0,0 l/m 4,4 km/h (1 Bft) SW 0,72 h 0,025 mm 0,0 UV-I 56 W/m 9,4 C 11,9 C 11,6 km/h (2 Bft)
29.07.2015 08:00 12,5 C 83 % 1009,8 hPa 0,0 l/m 3,6 km/h (1 Bft) SW 1,00 h 0,025 mm 0,6 UV-I 105 W/m 9,6 C 12,3 C 9,8 km/h (2 Bft)
29.07.2015 09:00 12,8 C 82 % 1009,5 hPa 0,0 l/m 2,5 km/h (1 Bft) SW 0,92 h 0,051 mm 0,5 UV-I 63 W/m 9,8 C 12,7 C 7,8 km/h (2 Bft)
29.07.2015 10:00 14,0 C 79 % 1009,2 hPa 0,0 l/m 5,8 km/h (2 Bft) W-SW 1,00 h 0,051 mm 2,4 UV-I 349 W/m 10,4 C 13,3 C 13,5 km/h (3 Bft)
29.07.2015 11:00 15,3 C 72 % 1008,6 hPa 0,0 l/m 5,8 km/h (2 Bft) W-SW 1,00 h 0,178 mm 2,3 UV-I 249 W/m 10,3 C 14,7 C 12,3 km/h (2 Bft)
29.07.2015 12:00 15,7 C 70 % 1008,1 hPa 0,0 l/m 6,2 km/h (2 Bft) W-SW 1,00 h 0,152 mm 2,1 UV-I 219 W/m 10,2 C 15,1 C 13,4 km/h (3 Bft)
29.07.2015 13:00 15,7 C 71 % 1008,0 hPa 0,0 l/m 5,6 km/h (2 Bft) W 1,00 h 0,152 mm 1,7 UV-I 179 W/m 10,6 C 15,4 C 12,7 km/h (3 Bft)
29.07.2015 14:00 15,0 C 77 % 1008,1 hPa 0,0 l/m 8,3 km/h (2 Bft) W 1,00 h 0,127 mm 1,6 UV-I 172 W/m 11,1 C 13,7 C 14,7 km/h (3 Bft)
29.07.2015 15:00 13,7 C 89 % 1008,3 hPa 0,8 l/m 2,1 km/h (1 Bft) W 1,00 h 0,102 mm 0,9 UV-I 98 W/m 11,9 C 13,7 C 5,9 km/h (2 Bft)
29.07.2015 16:00 13,3 C 93 % 1008,6 hPa 1,2 l/m 0,7 km/h (0 Bft) N 1,00 h 0,051 mm 0,9 UV-I 111 W/m 12,2 C 13,3 C 2,3 km/h (1 Bft)
29.07.2015 17:00 13,8 C 92 % 1008,8 hPa 0,0 l/m 4,3 km/h (1 Bft) W-SW 1,00 h 0,051 mm 1,0 UV-I 181 W/m 12,5 C 13,5 C 9,7 km/h (2 Bft)
29.07.2015 18:00 14,2 C 89 % 1008,9 hPa 0,0 l/m 6,1 km/h (2 Bft) W-SW 1,00 h 0,102 mm 0,8 UV-I 130 W/m 12,5 C 13,6 C 12,9 km/h (3 Bft)
29.07.2015 19:00 14,1 C 88 % 1009,1 hPa 0,0 l/m 3,5 km/h (1 Bft) W-SW 0,37 h 0,076 mm 0,5 UV-I 49 W/m 12,1 C 13,9 C 8,8 km/h (2 Bft)
29.07.2015 20:00 13,2 C 90 % 1009,8 hPa 0,0 l/m 1,0 km/h (0 Bft) SW 0,00 h 0,025 mm 0,0 UV-I 14 W/m 11,6 C 13,2 C 4,0 km/h (1 Bft)
29.07.2015 21:00 12,2 C 92 % 1010,6 hPa 0,0 l/m 0,0 km/h (0 Bft) N 0,00 h 0,000 mm 0,0 UV-I 0 W/m 11,0 C 12,2 C 0,1 km/h (0 Bft)
29.07.2015 22:00 11,5 C 92 % 1011,2 hPa 0,0 l/m 0,0 km/h (0 Bft) N 0,00 h 0,000 mm 0,0 UV-I 0 W/m 10,3 C 11,5 C 0,1 km/h (0 Bft)
29.07.2015 23:00 11,2 C 93 % 1012,1 hPa 0,0 l/m 0,4 km/h (0 Bft) SW 0,00 h 0,000 mm 0,0 UV-I 0 W/m 10,1 C 11,2 C 3,5 km/h (1 Bft)
30.07.2015 00:00 11,2 C 91 % 1012,8 hPa 0,0 l/m 0,7 km/h (0 Bft) N 0,00 h 0,000 mm 0,0 UV-I 0 W/m 9,8 C 11,2 C 2,9 km/h (1 Bft)
30.07.2015 01:00 10,3 C 92 % 1013,1 hPa 0,0 l/m 0,1 km/h (0 Bft) N 0,00 h 0,000 mm 0,0 UV-I 0 W/m 9,1 C 10,3 C 0,5 km/h (0 Bft)
30.07.2015 02:00 9,4 C 94 % 1013,3 hPa 0,0 l/m 0,2 km/h (0 Bft) N 0,00 h 0,000 mm 0,0 UV-I 0 W/m 8,5 C 9,4 C 0,8 km/h (0 Bft)
30.07.2015 03:00 9,6 C 94 % 1013,5 hPa 0,0 l/m 0,5 km/h (0 Bft) N 0,00 h 0,000 mm 0,0 UV-I 0 W/m 8,7 C 9,6 C 2,4 km/h (1 Bft)
30.07.2015 04:00 8,5 C 94 % 1013,7 hPa 0,0 l/m 0,7 km/h (0 Bft) N 0,00 h 0,000 mm 0,0 UV-I 0 W/m 7,6 C 8,5 C 1,7 km/h (1 Bft)
30.07.2015 05:00 7,6 C 96 % 1013,8 hPa 0,0 l/m 0,0 km/h (0 Bft) N 0,00 h 0,000 mm 0,0 UV-I 7 W/m 6,9 C 7,6 C 0,0 km/h (0 Bft)
30.07.2015 06:00 7,6 C 96 % 1014,1 hPa 0,0 l/m 0,0 km/h (0 Bft) N 0,00 h 0,000 mm 0,0 UV-I 18 W/m 7,0 C 7,6 C 0,0 km/h (0 Bft)
30.07.2015 07:00 9,5 C 95 % 1014,3 hPa 0,0 l/m 0,0 km/h (0 Bft) N 0,50 h 0,000 mm 0,7 UV-I 144 W/m 8,7 C 9,5 C 0,0 km/h (0 Bft)
30.07.2015 08:00 12,8 C 82 % 1014,4 hPa 0,0 l/m 1,9 km/h (1 Bft) N 1,00 h 0,076 mm 1,2 UV-I 409 W/m 9,7 C 12,8 C 4,4 km/h (1 Bft)
30.07.2015 09:00 15,2 C 67 % 1014,3 hPa 0,0 l/m 7,0 km/h (2 Bft) W-SW 1,00 h 0,203 mm 2,5 UV-I 587 W/m 9,1 C 14,4 C 14,2 km/h (3 Bft)
30.07.2015 10:00 16,7 C 57 % 1014,3 hPa 0,2 l/m 10,4 km/h (2 Bft) W-SW 1,00 h 0,330 mm 3,6 UV-I 682 W/m 8,1 C 14,9 C 19,8 km/h (4 Bft)
30.07.2015 11:00 16,4 C 54 % 1014,4 hPa 0,0 l/m 8,1 km/h (2 Bft) W 1,00 h 0,432 mm 2,6 UV-I 344 W/m 7,1 C 15,3 C 17,1 km/h (3 Bft)
30.07.2015 12:00 17,7 C 49 % 1014,5 hPa 0,0 l/m 10,6 km/h (2 Bft) W 1,00 h 0,229 mm 4,5 UV-I 491 W/m 6,9 C 15,8 C 20,7 km/h (4 Bft)
30.07.2015 13:00 18,3 C 48 % 1014,5 hPa 0,0 l/m 9,0 km/h (2 Bft) W 1,00 h 0,406 mm 4,2 UV-I 558 W/m 7,2 C 16,9 C 17,8 km/h (3 Bft)
30.07.2015 14:00 17,8 C 46 % 1014,4 hPa 0,0 l/m 5,6 km/h (2 Bft) W-SW 1,00 h 0,000 mm 3,2 UV-I 338 W/m 6,0 C 17,4 C 12,7 km/h (3 Bft)
30.07.2015 15:00 17,9 C 48 % 1014,4 hPa 0,0 l/m 5,0 km/h (1 Bft) W-SW 1,00 h 0,330 mm 2,4 UV-I 269 W/m 6,7 C 17,6 C 11,4 km/h (2 Bft)
30.07.2015 16:00 18,3 C 45 % 1014,3 hPa 0,0 l/m 7,2 km/h (2 Bft) W 1,00 h 0,229 mm 2,0 UV-I 314 W/m 6,1 C 17,5 C 14,4 km/h (3 Bft)
30.07.2015 17:00 19,0 C 43 % 1014,2 hPa 0,0 l/m 5,1 km/h (1 Bft) W 1,00 h 0,229 mm 1,7 UV-I 326 W/m 6,1 C 18,7 C 11,3 km/h (2 Bft)
30.07.2015 18:00 18,5 C 42 % 1014,1 hPa 0,0 l/m 5,0 km/h (1 Bft) W 1,00 h 0,229 mm 0,8 UV-I 111 W/m 5,3 C 18,1 C 11,4 km/h (2 Bft)
30.07.2015 19:00 17,8 C 44 % 1014,3 hPa 0,0 l/m 2,3 km/h (1 Bft) W 0,65 h 0,102 mm 0,5 UV-I 69 W/m 5,2 C 17,7 C 6,4 km/h (2 Bft)
30.07.2015 20:00 16,9 C 47 % 1014,7 hPa 0,0 l/m 0,2 km/h (0 Bft) N 0,00 h 0,076 mm 0,0 UV-I 19 W/m 5,5 C 16,9 C 0,8 km/h (0 Bft)
30.07.2015 21:00 14,9 C 56 % 1015,3 hPa 0,0 l/m 0,2 km/h (0 Bft) N 0,00 h 0,025 mm 0,0 UV-I 0 W/m 6,2 C 14,9 C 0,6 km/h (0 Bft)
30.07.2015 22:00 11,9 C 72 % 1015,9 hPa 0,0 l/m 0,0 km/h (0 Bft) N 0,00 h 0,000 mm 0,0 UV-I 0 W/m 7,0 C 11,9 C 0,0 km/h (0 Bft)
30.07.2015 23:00 10,3 C 81 % 1016,4 hPa 0,0 l/m 0,0 km/h (0 Bft) N 0,00 h 0,025 mm 0,0 UV-I 0 W/m 7,1 C 10,3 C 0,0 km/h (0 Bft)
31.07.2015 00:00 8,8 C 87 % 1016,9 hPa 0,0 l/m 0,0 km/h (0 Bft) N 0,00 h 0,025 mm 0,0 UV-I 0 W/m 6,7 C 8,8 C 0,0 km/h (0 Bft)
31.07.2015 01:00 8,3 C 88 % 1017,0 hPa 0,0 l/m 0,0 km/h (0 Bft) N 0,00 h 0,000 mm 0,0 UV-I 0 W/m 6,4 C 8,3 C 0,0 km/h (0 Bft)
31.07.2015 02:00 8,0 C 89 % 1017,3 hPa 0,0 l/m 0,0 km/h (0 Bft) N 0,00 h 0,000 mm 0,0 UV-I 0 W/m 6,3 C 8,0 C 0,0 km/h (0 Bft)
31.07.2015 03:00 7,3 C 92 % 1017,6 hPa 0,0 l/m 0,0 km/h (0 Bft) N 0,00 h 0,000 mm 0,0 UV-I 0 W/m 6,0 C 7,3 C 0,0 km/h (0 Bft)
31.07.2015 04:00 7,3 C 91 % 1017,8 hPa 0,0 l/m 0,0 km/h (0 Bft) N 0,00 h 0,000 mm 0,0 UV-I 0 W/m 6,0 C 7,3 C 0,0 km/h (0 Bft)
31.07.2015 05:00 6,8 C 92 % 1018,1 hPa 0,0 l/m 0,0 km/h (0 Bft) N 0,00 h 0,000 mm 0,0 UV-I 7 W/m 5,7 C 6,8 C 0,0 km/h (0 Bft)
31.07.2015 06:00 6,4 C 94 % 1018,4 hPa 0,0 l/m 0,0 km/h (0 Bft) N 0,00 h 0,000 mm 0,0 UV-I 20 W/m 5,5 C 6,4 C 0,1 km/h (0 Bft)
31.07.2015 07:00 8,8 C 89 % 1018,6 hPa 0,0 l/m 0,0 km/h (0 Bft) N 0,50 h 0,000 mm 0,7 UV-I 140 W/m 7,1 C 8,8 C 0,0 km/h (0 Bft)
31.07.2015 08:00 13,0 C 75 % 1018,8 hPa 0,0 l/m 2,5 km/h (1 Bft) N 1,00 h 0,076 mm 1,3 UV-I 393 W/m 8,7 C 13,0 C 5,1 km/h (1 Bft)
31.07.2015 09:00 15,4 C 66 % 1018,8 hPa 0,0 l/m 3,6 km/h (1 Bft) N 1,00 h 0,203 mm 2,5 UV-I 559 W/m 9,1 C 15,3 C 6,3 km/h (2 Bft)
31.07.2015 10:00 17,2 C 59 % 1018,6 hPa 0,0 l/m 1,4 km/h (1 Bft) N 1,00 h 0,305 mm 3,8 UV-I 703 W/m 9,0 C 17,1 C 3,1 km/h (1 Bft)
31.07.2015 11:00 18,3 C 53 % 1018,5 hPa 0,0 l/m 1,3 km/h (1 Bft) N 1,00 h 0,381 mm 4,6 UV-I 618 W/m 8,5 C 18,3 C 3,6 km/h (1 Bft)
31.07.2015 12:00 18,8 C 50 % 1018,3 hPa 0,0 l/m 1,7 km/h (1 Bft) N 1,00 h 0,356 mm 4,6 UV-I 522 W/m 8,1 C 18,8 C 4,6 km/h (1 Bft)
31.07.2015 13:00 19,8 C 47 % 1017,9 hPa 0,0 l/m 1,8 km/h (1 Bft) N 1,00 h 0,305 mm 5,3 UV-I 680 W/m 8,0 C 19,8 C 4,0 km/h (1 Bft)
31.07.2015 14:00 20,9 C 44 % 1017,7 hPa 0,0 l/m 1,3 km/h (1 Bft) N 1,00 h 0,406 mm 5,0 UV-I 682 W/m 8,1 C 20,9 C 3,5 km/h (1 Bft)
31.07.2015 15:00 21,6 C 40 % 1016,9 hPa 0,0 l/m 2,3 km/h (1 Bft) N 1,00 h 0,432 mm 4,5 UV-I 665 W/m 7,3 C 21,6 C 5,2 km/h (1 Bft)
31.07.2015 16:00 21,3 C 38 % 1016,3 hPa 0,0 l/m 1,4 km/h (1 Bft) N 1,00 h 0,432 mm 2,9 UV-I 511 W/m 6,6 C 21,3 C 3,3 km/h (1 Bft)
31.07.2015 17:00 20,9 C 40 % 1016,1 hPa 0,0 l/m 0,5 km/h (0 Bft) N 1,00 h 0,330 mm 1,8 UV-I 350 W/m 6,6 C 20,9 C 1,7 km/h (1 Bft)
31.07.2015 18:00 20,5 C 40 % 1015,7 hPa 0,0 l/m 1,1 km/h (1 Bft) N 1,00 h 0,229 mm 0,8 UV-I 78 W/m 6,4 C 20,5 C 2,8 km/h (1 Bft)
31.07.2015 19:00 19,6 C 44 % 1015,6 hPa 0,0 l/m 2,9 km/h (1 Bft) N-NO 0,07 h 0,076 mm 0,0 UV-I 37 W/m 7,1 C 19,6 C 6,8 km/h (2 Bft)
31.07.2015 20:00 18,1 C 50 % 1015,5 hPa 0,0 l/m 2,7 km/h (1 Bft) N-NO 0,00 h 0,051 mm 0,0 UV-I 17 W/m 7,5 C 18,1 C 6,5 km/h (2 Bft)
31.07.2015 21:00 16,1 C 57 % 1015,7 hPa 0,0 l/m 0,1 km/h (0 Bft) N 0,00 h 0,025 mm 0,0 UV-I 0 W/m 7,6 C 16,1 C 0,5 km/h (0 Bft)
31.07.2015 22:00 14,7 C 63 % 1015,8 hPa 0,0 l/m 0,0 km/h (0 Bft) N 0,00 h 0,000 mm 0,0 UV-I 0 W/m 7,7 C 14,7 C 0,3 km/h (0 Bft)
31.07.2015 23:00 14,1 C 66 % 1015,8 hPa 0,0 l/m 0,2 km/h (0 Bft) N 0,00 h 0,025 mm 0,0 UV-I 0 W/m 7,8 C 14,1 C 1,7 km/h (1 Bft)
01.08.2015 00:00 13,7 C 67 % 1015,6 hPa 0,0 l/m 1,4 km/h (1 Bft) O-NO 0,00 h 0,025 mm 0,0 UV-I 0 W/m 7,7 C 13,7 C 5,2 km/h (1 Bft)
01.08.2015 01:00 13,3 C 68 % 1015,5 hPa 0,0 l/m 1,4 km/h (1 Bft) O 0,00 h 0,025 mm 0,0 UV-I 0 W/m 7,5 C 13,3 C 5,1 km/h (1 Bft)
01.08.2015 02:00 13,3 C 67 % 1015,6 hPa 0,0 l/m 2,7 km/h (1 Bft) O-NO 0,00 h 0,025 mm 0,0 UV-I 0 W/m 7,4 C 13,2 C 7,2 km/h (2 Bft)
01.08.2015 03:00 13,1 C 67 % 1015,0 hPa 0,0 l/m 3,0 km/h (1 Bft) O-NO 0,00 h 0,025 mm 0,0 UV-I 0 W/m 7,2 C 13,0 C 7,4 km/h (2 Bft)
01.08.2015 04:00 13,1 C 67 % 1014,7 hPa 0,0 l/m 2,5 km/h (1 Bft) N 0,00 h 0,000 mm 0,0 UV-I 0 W/m 7,1 C 13,0 C 6,6 km/h (2 Bft)
01.08.2015 05:00 13,0 C 67 % 1014,3 hPa 0,0 l/m 7,6 km/h (2 Bft) O-NO 0,00 h 0,025 mm 0,0 UV-I 9 W/m 7,1 C 11,7 C 14,3 km/h (3 Bft)
01.08.2015 06:00 12,9 C 68 % 1014,2 hPa 0,0 l/m 1,6 km/h (1 Bft) N 0,17 h 0,025 mm 0,0 UV-I 40 W/m 7,2 C 12,8 C 4,6 km/h (1 Bft)
01.08.2015 07:00 13,9 C 66 % 1014,0 hPa 0,0 l/m 4,0 km/h (1 Bft) NO 1,00 h 0,025 mm 0,7 UV-I 166 W/m 7,7 C 13,5 C 9,5 km/h (2 Bft)
01.08.2015 08:00 16,5 C 60 % 1013,9 hPa 0,0 l/m 2,4 km/h (1 Bft) O-NO 1,00 h 0,102 mm 1,3 UV-I 334 W/m 8,6 C 16,4 C 6,7 km/h (2 Bft)
01.08.2015 09:00 18,8 C 54 % 1014,2 hPa 0,0 l/m 0,5 km/h (0 Bft) N 1,00 h 0,203 mm 2,4 UV-I 490 W/m 9,2 C 18,8 C 2,2 km/h (1 Bft)
01.08.2015 10:00 20,0 C 50 % 1013,9 hPa 0,0 l/m 2,9 km/h (1 Bft) O-SO 1,00 h 0,279 mm 3,2 UV-I 550 W/m 9,2 C 20,0 C 7,6 km/h (2 Bft)
01.08.2015 11:00 21,2 C 46 % 1014,0 hPa 0,0 l/m 3,1 km/h (1 Bft) SO 1,00 h 0,330 mm 4,2 UV-I 598 W/m 9,2 C 21,1 C 6,8 km/h (2 Bft)
01.08.2015 12:00 21,7 C 46 % 1014,1 hPa 0,0 l/m 6,2 km/h (2 Bft) S-SO 1,00 h 0,381 mm 3,9 UV-I 495 W/m 9,4 C 21,4 C 10,6 km/h (2 Bft)
01.08.2015 13:00 21,5 C 46 % 1014,2 hPa 0,0 l/m 3,0 km/h (1 Bft) S-SO 1,00 h 0,356 mm 3,0 UV-I 349 W/m 9,4 C 21,4 C 6,6 km/h (2 Bft)
01.08.2015 14:00 21,2 C 49 % 1014,1 hPa 0,0 l/m 0,5 km/h (0 Bft) N 1,00 h 0,229 mm 2,3 UV-I 275 W/m 10,0 C 21,2 C 1,6 km/h (1 Bft)
01.08.2015 15:00 21,5 C 48 % 1013,8 hPa 0,0 l/m 0,9 km/h (0 Bft) N 1,00 h 0,178 mm 1,6 UV-I 180 W/m 10,1 C 21,5 C 2,1 km/h (1 Bft)
01.08.2015 16:00 21,1 C 50 % 1014,0 hPa 0,0 l/m 0,1 km/h (0 Bft) N 1,00 h 0,127 mm 0,8 UV-I 94 W/m 10,2 C 21,1 C 0,3 km/h (0 Bft)
01.08.2015 17:00 20,8 C 54 % 1014,1 hPa 0,0 l/m 0,6 km/h (0 Bft) N 0,88 h 0,076 mm 0,6 UV-I 70 W/m 11,1 C 20,8 C 1,5 km/h (1 Bft)
01.08.2015 18:00 19,8 C 59 % 1014,0 hPa 0,0 l/m 1,1 km/h (1 Bft) N 0,35 h 0,051 mm 0,0 UV-I 49 W/m 11,6 C 19,8 C 2,9 km/h (1 Bft)
01.08.2015 19:00 19,3 C 63 % 1014,0 hPa 0,0 l/m 0,0 km/h (0 Bft) N 0,00 h 0,051 mm 0,0 UV-I 23 W/m 12,1 C 19,3 C 0,1 km/h (0 Bft)
01.08.2015 20:00 18,4 C 69 % 1014,3 hPa 0,0 l/m 0,0 km/h (0 Bft) N 0,00 h 0,025 mm 0,0 UV-I 9 W/m 12,5 C 18,4 C 0,0 km/h (0 Bft)
01.08.2015 21:00 17,9 C 71 % 1015,0 hPa 0,0 l/m 0,0 km/h (0 Bft) N 0,00 h 0,000 mm 0,0 UV-I 0 W/m 12,6 C 17,9 C 0,0 km/h (0 Bft)
01.08.2015 22:00 17,0 C 78 % 1015,3 hPa 0,0 l/m 0,0 km/h (0 Bft) N 0,00 h 0,025 mm 0,0 UV-I 0 W/m 13,1 C 17,0 C 0,1 km/h (0 Bft)
01.08.2015 23:00 16,5 C 82 % 1015,6 hPa 0,0 l/m 0,0 km/h (0 Bft) N 0,00 h 0,025 mm 0,0 UV-I 0 W/m 13,3 C 16,5 C 0,0 km/h (0 Bft)
02.08.2015 00:00 16,3 C 82 % 1015,7 hPa 0,0 l/m 0,0 km/h (0 Bft) N 0,00 h 0,025 mm 0,0 UV-I 0 W/m 13,2 C 16,3 C 0,1 km/h (0 Bft)
02.08.2015 01:00 16,1 C 84 % 1015,7 hPa 0,0 l/m 0,1 km/h (0 Bft) N 0,00 h 0,025 mm 0,0 UV-I 0 W/m 13,3 C 16,1 C 0,3 km/h (0 Bft)
02.08.2015 02:00 15,6 C 87 % 1015,6 hPa 0,0 l/m 0,1 km/h (0 Bft) N 0,00 h 0,025 mm 0,0 UV-I 0 W/m 13,4 C 15,6 C 0,2 km/h (0 Bft)
02.08.2015 03:00 15,5 C 86 % 1015,8 hPa 0,0 l/m 0,0 km/h (0 Bft) N 0,00 h 0,000 mm 0,0 UV-I 0 W/m 13,2 C 15,5 C 0,0 km/h (0 Bft)
02.08.2015 04:00 14,7 C 89 % 1016,0 hPa 0,0 l/m 0,0 km/h (0 Bft) N 0,00 h 0,000 mm 0,0 UV-I 0 W/m 13,0 C 14,7 C 0,1 km/h (0 Bft)
02.08.2015 05:00 14,2 C 91 % 1016,3 hPa 0,0 l/m 0,0 km/h (0 Bft) N 0,00 h 0,000 mm 0,0 UV-I 5 W/m 12,8 C 14,2 C 0,0 km/h (0 Bft)
02.08.2015 06:00 14,4 C 91 % 1016,7 hPa 0,0 l/m 0,0 km/h (0 Bft) N 0,00 h 0,000 mm 0,0 UV-I 23 W/m 12,9 C 14,4 C 0,1 km/h (0 Bft)
02.08.2015 07:00 14,9 C 88 % 1017,1 hPa 0,0 l/m 0,0 km/h (0 Bft) N 0,00 h 0,025 mm 0,0 UV-I 24 W/m 13,0 C 14,9 C 0,1 km/h (0 Bft)
02.08.2015 08:00 15,5 C 88 % 1017,3 hPa 0,0 l/m 0,0 km/h (0 Bft) N 0,83 h 0,025 mm 0,8 UV-I 88 W/m 13,5 C 15,5 C 0,0 km/h (0 Bft)
02.08.2015 09:00 17,9 C 78 % 1017,6 hPa 0,0 l/m 1,3 km/h (1 Bft) N 1,00 h 0,051 mm 1,3 UV-I 197 W/m 14,1 C 17,9 C 2,6 km/h (1 Bft)
02.08.2015 10:00 20,0 C 66 % 1018,0 hPa 0,0 l/m 3,0 km/h (1 Bft) N 1,00 h 0,127 mm 2,0 UV-I 264 W/m 13,4 C 20,0 C 5,2 km/h (1 Bft)
02.08.2015 11:00 22,6 C 53 % 1018,4 hPa 0,0 l/m 4,8 km/h (1 Bft) N 1,00 h 0,178 mm 3,7 UV-I 546 W/m 12,4 C 22,4 C 8,6 km/h (2 Bft)
02.08.2015 12:00 26,1 C 42 % 1018,3 hPa 0,0 l/m 4,7 km/h (1 Bft) N 1,00 h 0,356 mm 5,8 UV-I 898 W/m 12,2 C 26,0 C 9,0 km/h (2 Bft)
02.08.2015 13:00 27,1 C 39 % 1018,1 hPa 0,0 l/m 2,8 km/h (1 Bft) N 1,00 h 0,610 mm 5,5 UV-I 779 W/m 11,8 C 27,0 C 6,2 km/h (2 Bft)
02.08.2015 14:00 26,9 C 37 % 1017,8 hPa 0,0 l/m 1,7 km/h (1 Bft) SO 1,00 h 0,533 mm 4,7 UV-I 679 W/m 10,9 C 26,9 C 4,8 km/h (1 Bft)
02.08.2015 15:00 27,7 C 36 % 1017,3 hPa 0,0 l/m 3,0 km/h (1 Bft) S-SO 1,00 h 0,457 mm 4,3 UV-I 754 W/m 11,4 C 27,7 C 6,8 km/h (2 Bft)
02.08.2015 16:00 27,3 C 37 % 1017,0 hPa 0,0 l/m 2,7 km/h (1 Bft) N-NO 1,00 h 0,533 mm 2,1 UV-I 422 W/m 11,2 C 27,3 C 7,6 km/h (2 Bft)
02.08.2015 17:00 25,7 C 42 % 1017,0 hPa 0,0 l/m 0,8 km/h (0 Bft) N 1,00 h 0,305 mm 0,8 UV-I 112 W/m 11,8 C 25,7 C 3,0 km/h (1 Bft)
02.08.2015 18:00 25,1 C 44 % 1017,0 hPa 0,0 l/m 1,6 km/h (1 Bft) N 0,38 h 0,102 mm 0,6 UV-I 51 W/m 12,0 C 25,1 C 3,1 km/h (1 Bft)
02.08.2015 19:00 23,8 C 51 % 1017,2 hPa 0,0 l/m 0,1 km/h (0 Bft) N 0,00 h 0,051 mm 0,0 UV-I 10 W/m 12,9 C 23,8 C 0,4 km/h (0 Bft)
02.08.2015 20:00 22,6 C 57 % 1017,3 hPa 0,0 l/m 1,7 km/h (1 Bft) O-SO 0,00 h 0,025 mm 0,0 UV-I 0 W/m 13,7 C 22,6 C 4,9 km/h (1 Bft)
02.08.2015 21:00 21,5 C 63 % 1017,8 hPa 0,0 l/m 0,7 km/h (0 Bft) N 0,00 h 0,025 mm 0,0 UV-I 0 W/m 14,1 C 21,5 C 2,4 km/h (1 Bft)
02.08.2015 22:00 19,7 C 69 % 1018,2 hPa 0,0 l/m 0,1 km/h (0 Bft) N 0,00 h 0,051 mm 0,0 UV-I 0 W/m 13,8 C 19,7 C 0,6 km/h (0 Bft)
02.08.2015 23:00 18,6 C 72 % 1018,6 hPa 0,0 l/m 0,3 km/h (0 Bft) N 0,00 h 0,025 mm 0,0 UV-I 0 W/m 13,5 C 18,6 C 1,9 km/h (1 Bft)
Min-Datum _ 28.07.15 02.08.15 27.07.15 - 27.07.15 - - - - - 30.07.15 31.07.15 27.07.15
_ Min-Zeit 03:22 16:02 14:40 - 00:00 - - - - - 18:32 06:23 00:00
Minimum _ 0,0 C 33 % 1003,2 hPa - 0,0 km/h (0 Bft) - - - - - 4,4 C 6,2 C 0,0 km/h (0 Bft)
Max-Datum _ 02.08.15 30.07.15 31.07.15 27.07.15 28.07.15 - 30.07.15 02.08.15 27.07.15 27.07.15 27.07.15 02.08.15 27.07.15
_ Max-Zeit 15:49 06:06 08:45 10:02 14:57 - 13:32 13:00 13:34 12:52 11:51 15:49 19:15
Maximum _ 28,6 C 97 % 1018,9 hPa 1,8 l/m 30,6 km/h
W-SW (5 Bft)
- 0,10 h 0,610 mm 7,1 UV-I 1162 W/m 15,7 C 28,6 C 48,3 km/h
SW (6 Bft)
Durchschnitt _ 15,9 C 70 % 1012,2 hPa #6,8 l/m 3,3 km/h (1 Bft) N #82:05 h #20,059 mm 2,3 UV-I 261 W/m 9,8 C 15,5 C 6,8 km/h (2 Bft)